Airfield :
LOGIN :

Register | Disclaimer

   EN    FR    IT 

 










Legend :    VFR   Marginal VFR   IFR   Intensive IFR   Very Intensive IFR
Visi :
Ceiling :
>= 8 km
>= 3000ft
5 to 8 km
1000 to 3000 ft
1500m to 5 km
500 to 1000 ft
800 to 1500m
200 to 500 ft
< 800m
< 200 ft
Symbols :   Thunderstorms  Fog  Heavy snow  Heavy precipitations  Wind > 20 kt
SIGMETs :     Misc.  Thunderstorms  Icing  Turbulence  Mountain Waves  Volcanic Ashes







- Airport Elevation : 20 ft
- IATA code : DLM


LTBS - Dalaman

CURRENT METAR :
  • 240550Z 36010KT CAVOK 31/12 Q1004 NOSIG RMK RWY19 33009KT

EXPIRED METARs :
  • 240520Z 01008KT CAVOK 30/13 Q1004 NOSIG
  • 240450Z 08005KT 050V110 CAVOK 27/14 Q1003 NOSIG RMK RWY19 34010KT
  • 240420Z 06007KT CAVOK 26/13 Q1003 NOSIG RMK RWY19 36007KT
  • 240350Z 07009KT CAVOK 24/13 Q1003 NOSIG
  • 240320Z 06008KT CAVOK 22/14 Q1003 NOSIG

TAF TAF LTBS
Valid from the 24 at 06:00 until the 25 at 06:00 UTC


240440Z 2406/2506 01009KT CAVOK
BECMG 2407/2409 21012KT FEW030
BECMG 2416/2418 VRB02KT CAVOK
No reported NOTAMs for that airfield.



MET'MAP, your aeronautical weather chart ! - Copyright ORBIFLY December 2007 - Disclaimer

ORBIFLY MET'MAP TEAM :

Programming & Development : Alexandra Zaïnal
Concept & Development : Baudouin d'Aumeries
Co-Development & Prog : Marc-Olivier Méhu
Technical & hardware support : Manuel Goepfert

Contact : metmap@orbifly.com




SOURCES & CREDITS :

   NOAA